sensor_id;sensor_type;location;lat;lon;timestamp;pressure;altitude;pressure_sealevel;temperature;humidity
51083;BME280;37131;42.694;23.350;2022-12-20T00:00:24;97389.81;;;-1.67;93.90
51083;BME280;37131;42.694;23.350;2022-12-20T00:02:50;97397.09;;;-1.61;91.51
51083;BME280;37131;42.694;23.350;2022-12-20T00:05:15;97394.09;;;-1.67;91.88
51083;BME280;37131;42.694;23.350;2022-12-20T00:07:40;97400.28;;;-1.71;92.06
51083;BME280;37131;42.694;23.350;2022-12-20T00:10:06;97408.13;;;-1.60;91.53
51083;BME280;37131;42.694;23.350;2022-12-20T00:12:31;97401.13;;;-1.71;91.51
51083;BME280;37131;42.694;23.350;2022-12-20T00:14:56;97407.34;;;-1.75;91.04
51083;BME280;37131;42.694;23.350;2022-12-20T00:17:22;97406.88;;;-1.67;91.83
51083;BME280;37131;42.694;23.350;2022-12-20T00:19:47;97405.56;;;-1.46;90.45
51083;BME280;37131;42.694;23.350;2022-12-20T00:22:12;97413.97;;;-1.58;89.94
51083;BME280;37131;42.694;23.350;2022-12-20T00:24:38;97409.50;;;-1.54;89.67
51083;BME280;37131;42.694;23.350;2022-12-20T00:27:03;97408.59;;;-1.53;89.22
51083;BME280;37131;42.694;23.350;2022-12-20T00:29:29;97410.59;;;-1.59;88.76
51083;BME280;37131;42.694;23.350;2022-12-20T00:31:55;97410.97;;;-1.50;87.92
51083;BME280;37131;42.694;23.350;2022-12-20T00:34:20;97405.25;;;-1.41;86.57
51083;BME280;37131;42.694;23.350;2022-12-20T00:36:45;97407.38;;;-1.48;86.87
51083;BME280;37131;42.694;23.350;2022-12-20T00:39:10;97402.72;;;-1.41;85.96
51083;BME280;37131;42.694;23.350;2022-12-20T00:41:36;97409.66;;;-1.43;84.45
51083;BME280;37131;42.694;23.350;2022-12-20T00:44:01;97397.03;;;-1.46;83.99
51083;BME280;37131;42.694;23.350;2022-12-20T00:46:27;97392.31;;;-1.52;85.05
51083;BME280;37131;42.694;23.350;2022-12-20T00:48:52;97398.97;;;-1.50;84.82
51083;BME280;37131;42.694;23.350;2022-12-20T00:51:19;97403.00;;;-1.46;83.67
51083;BME280;37131;42.694;23.350;2022-12-20T00:53:45;97397.88;;;-1.46;84.34
51083;BME280;37131;42.694;23.350;2022-12-20T00:56:10;97402.13;;;-1.59;84.26
51083;BME280;37131;42.694;23.350;2022-12-20T00:58:36;97407.44;;;-1.62;84.47
51083;BME280;37131;42.694;23.350;2022-12-20T01:01:02;97412.69;;;-1.51;83.58
51083;BME280;37131;42.694;23.350;2022-12-20T01:03:28;97406.56;;;-1.48;83.29
51083;BME280;37131;42.694;23.350;2022-12-20T01:05:55;97408.59;;;-1.53;82.37
51083;BME280;37131;42.694;23.350;2022-12-20T01:08:20;97400.44;;;-1.46;82.81
51083;BME280;37131;42.694;23.350;2022-12-20T01:10:46;97409.41;;;-1.53;83.35
51083;BME280;37131;42.694;23.350;2022-12-20T01:13:12;97405.56;;;-1.46;82.75
51083;BME280;37131;42.694;23.350;2022-12-20T01:15:37;97396.88;;;-1.43;82.82
51083;BME280;37131;42.694;23.350;2022-12-20T01:18:02;97399.84;;;-1.36;83.28
51083;BME280;37131;42.694;23.350;2022-12-20T01:20:27;97398.78;;;-1.47;83.79
51083;BME280;37131;42.694;23.350;2022-12-20T01:22:53;97394.84;;;-1.38;82.44
51083;BME280;37131;42.694;23.350;2022-12-20T01:25:18;97386.63;;;-1.43;81.87
51083;BME280;37131;42.694;23.350;2022-12-20T01:27:43;97389.34;;;-1.46;82.36
51083;BME280;37131;42.694;23.350;2022-12-20T01:30:09;97378.31;;;-1.47;82.62
51083;BME280;37131;42.694;23.350;2022-12-20T01:32:34;97386.09;;;-1.48;83.18
51083;BME280;37131;42.694;23.350;2022-12-20T01:34:59;97374.22;;;-1.49;81.46
51083;BME280;37131;42.694;23.350;2022-12-20T01:37:25;97382.28;;;-1.55;82.08
51083;BME280;37131;42.694;23.350;2022-12-20T01:39:50;97382.56;;;-1.60;82.64
51083;BME280;37131;42.694;23.350;2022-12-20T01:42:15;97375.59;;;-1.58;82.63
51083;BME280;37131;42.694;23.350;2022-12-20T01:47:06;97369.88;;;-1.62;81.79
51083;BME280;37131;42.694;23.350;2022-12-20T01:49:32;97370.34;;;-1.69;81.60
51083;BME280;37131;42.694;23.350;2022-12-20T01:52:03;97368.81;;;-1.86;83.25
51083;BME280;37131;42.694;23.350;2022-12-20T01:54:31;97364.63;;;-1.87;84.18
51083;BME280;37131;42.694;23.350;2022-12-20T01:57:11;97353.84;;;-1.78;81.90
51083;BME280;37131;42.694;23.350;2022-12-20T01:59:39;97354.84;;;-1.81;82.76
51083;BME280;37131;42.694;23.350;2022-12-20T02:02:06;97348.47;;;-1.88;83.28
51083;BME280;37131;42.694;23.350;2022-12-20T02:04:32;97354.41;;;-1.87;84.27
51083;BME280;37131;42.694;23.350;2022-12-20T02:06:57;97349.66;;;-1.94;85.55
51083;BME280;37131;42.694;23.350;2022-12-20T02:09:23;97343.63;;;-1.92;85.49
51083;BME280;37131;42.694;23.350;2022-12-20T02:17:10;97345.66;;;-2.12;84.28
51083;BME280;37131;42.694;23.350;2022-12-20T02:30:02;97346.75;;;-1.87;82.95
51083;BME280;37131;42.694;23.350;2022-12-20T02:32:29;97349.22;;;-2.00;83.81
51083;BME280;37131;42.694;23.350;2022-12-20T02:34:54;97348.03;;;-1.95;84.13
51083;BME280;37131;42.694;23.350;2022-12-20T02:37:20;97349.84;;;-1.97;84.31
51083;BME280;37131;42.694;23.350;2022-12-20T02:39:45;97348.22;;;-2.12;83.93
51083;BME280;37131;42.694;23.350;2022-12-20T02:42:12;97341.63;;;-2.02;83.76
51083;BME280;37131;42.694;23.350;2022-12-20T02:45:02;97342.03;;;-2.08;83.36
51083;BME280;37131;42.694;23.350;2022-12-20T02:50:17;97339.00;;;-2.00;83.00
51083;BME280;37131;42.694;23.350;2022-12-20T02:52:45;97335.06;;;-2.06;84.18
51083;BME280;37131;42.694;23.350;2022-12-20T02:55:11;97337.19;;;-2.13;84.76
51083;BME280;37131;42.694;23.350;2022-12-20T02:57:50;97337.63;;;-2.06;84.75
51083;BME280;37131;42.694;23.350;2022-12-20T03:00:18;97339.56;;;-2.24;85.59
51083;BME280;37131;42.694;23.350;2022-12-20T03:02:45;97335.06;;;-2.20;85.02
51083;BME280;37131;42.694;23.350;2022-12-20T03:05:30;97333.78;;;-2.13;85.33
51083;BME280;37131;42.694;23.350;2022-12-20T03:07:57;97329.59;;;-2.14;84.56
51083;BME280;37131;42.694;23.350;2022-12-20T03:10:22;97325.75;;;-2.07;84.67
51083;BME280;37131;42.694;23.350;2022-12-20T03:12:48;97323.88;;;-2.32;85.24
51083;BME280;37131;42.694;23.350;2022-12-20T03:15:13;97328.16;;;-2.33;85.29
51083;BME280;37131;42.694;23.350;2022-12-20T03:17:38;97318.94;;;-2.35;85.89
51083;BME280;37131;42.694;23.350;2022-12-20T03:20:04;97326.88;;;-2.40;86.38
51083;BME280;37131;42.694;23.350;2022-12-20T03:22:32;97316.19;;;-2.32;86.69
51083;BME280;37131;42.694;23.350;2022-12-20T03:24:58;97313.25;;;-2.12;84.87
51083;BME280;37131;42.694;23.350;2022-12-20T03:27:24;97313.34;;;-2.27;84.79
51083;BME280;37131;42.694;23.350;2022-12-20T03:29:51;97316.28;;;-2.34;85.82
51083;BME280;37131;42.694;23.350;2022-12-20T03:32:16;97314.47;;;-2.46;85.76
51083;BME280;37131;42.694;23.350;2022-12-20T03:34:42;97323.94;;;-2.48;85.95
51083;BME280;37131;42.694;23.350;2022-12-20T03:37:07;97322.69;;;-2.55;86.28
51083;BME280;37131;42.694;23.350;2022-12-20T03:39:32;97319.22;;;-2.54;85.70
51083;BME280;37131;42.694;23.350;2022-12-20T03:41:57;97320.06;;;-2.54;86.61
51083;BME280;37131;42.694;23.350;2022-12-20T03:44:23;97313.81;;;-2.50;85.56
51083;BME280;37131;42.694;23.350;2022-12-20T03:46:49;97306.44;;;-2.54;86.55
51083;BME280;37131;42.694;23.350;2022-12-20T03:49:14;97309.19;;;-2.57;85.58
51083;BME280;37131;42.694;23.350;2022-12-20T03:51:40;97309.56;;;-2.63;85.75
51083;BME280;37131;42.694;23.350;2022-12-20T03:54:05;97310.53;;;-2.66;85.88
51083;BME280;37131;42.694;23.350;2022-12-20T03:56:31;97305.63;;;-2.69;86.30
51083;BME280;37131;42.694;23.350;2022-12-20T03:58:56;97303.16;;;-2.71;86.21
51083;BME280;37131;42.694;23.350;2022-12-20T04:01:23;97307.63;;;-2.74;86.23
51083;BME280;37131;42.694;23.350;2022-12-20T04:03:48;97305.97;;;-2.90;87.12
51083;BME280;37131;42.694;23.350;2022-12-20T04:06:14;97312.00;;;-2.91;87.23
51083;BME280;37131;42.694;23.350;2022-12-20T04:08:40;97313.25;;;-2.84;87.08
51083;BME280;37131;42.694;23.350;2022-12-20T04:11:05;97307.13;;;-2.95;86.96
51083;BME280;37131;42.694;23.350;2022-12-20T04:13:40;97312.34;;;-2.97;87.49
51083;BME280;37131;42.694;23.350;2022-12-20T04:16:05;97303.16;;;-3.00;88.98
51083;BME280;37131;42.694;23.350;2022-12-20T04:18:30;97308.06;;;-2.96;87.95
51083;BME280;37131;42.694;23.350;2022-12-20T04:20:56;97302.84;;;-3.09;88.90
51083;BME280;37131;42.694;23.350;2022-12-20T04:23:23;97299.31;;;-3.07;88.60
51083;BME280;37131;42.694;23.350;2022-12-20T04:25:48;97302.75;;;-3.08;88.22
51083;BME280;37131;42.694;23.350;2022-12-20T04:28:14;97300.38;;;-3.11;88.56
51083;BME280;37131;42.694;23.350;2022-12-20T04:30:39;97295.81;;;-3.06;88.90
51083;BME280;37131;42.694;23.350;2022-12-20T04:33:04;97295.22;;;-2.95;87.38
51083;BME280;37131;42.694;23.350;2022-12-20T04:35:29;97296.22;;;-2.97;88.69
51083;BME280;37131;42.694;23.350;2022-12-20T04:37:55;97296.34;;;-3.15;88.87
51083;BME280;37131;42.694;23.350;2022-12-20T04:40:20;97293.25;;;-3.06;88.38
51083;BME280;37131;42.694;23.350;2022-12-20T04:42:45;97292.00;;;-3.13;88.69
51083;BME280;37131;42.694;23.350;2022-12-20T04:45:10;97286.63;;;-3.08;87.62
51083;BME280;37131;42.694;23.350;2022-12-20T04:47:36;97297.94;;;-2.98;86.70
51083;BME280;37131;42.694;23.350;2022-12-20T04:50:01;97295.09;;;-3.08;87.90
51083;BME280;37131;42.694;23.350;2022-12-20T04:52:26;97291.72;;;-3.08;87.83
51083;BME280;37131;42.694;23.350;2022-12-20T04:55:10;97296.94;;;-3.10;87.33
51083;BME280;37131;42.694;23.350;2022-12-20T04:57:35;97292.00;;;-3.13;88.49
51083;BME280;37131;42.694;23.350;2022-12-20T05:00:00;97293.25;;;-3.20;88.28
51083;BME280;37131;42.694;23.350;2022-12-20T05:02:26;97290.63;;;-3.19;89.77
51083;BME280;37131;42.694;23.350;2022-12-20T05:04:51;97293.97;;;-3.18;89.07
51083;BME280;37131;42.694;23.350;2022-12-20T05:07:16;97286.31;;;-3.18;88.46
51083;BME280;37131;42.694;23.350;2022-12-20T05:09:41;97286.59;;;-3.23;88.08
51083;BME280;37131;42.694;23.350;2022-12-20T05:12:07;97289.16;;;-3.23;88.81
51083;BME280;37131;42.694;23.350;2022-12-20T05:14:32;97289.06;;;-3.21;89.16
51083;BME280;37131;42.694;23.350;2022-12-20T05:16:57;97291.44;;;-3.18;88.98
51083;BME280;37131;42.694;23.350;2022-12-20T05:19:22;97295.06;;;-3.22;89.43
51083;BME280;37131;42.694;23.350;2022-12-20T05:21:48;97293.59;;;-3.26;88.85
51083;BME280;37131;42.694;23.350;2022-12-20T05:24:31;97289.22;;;-3.24;90.02
51083;BME280;37131;42.694;23.350;2022-12-20T05:27:15;97292.22;;;-3.32;89.61
51083;BME280;37131;42.694;23.350;2022-12-20T05:29:41;97293.59;;;-3.26;89.91
51083;BME280;37131;42.694;23.350;2022-12-20T05:32:06;97291.22;;;-3.29;89.68
51083;BME280;37131;42.694;23.350;2022-12-20T05:34:31;97296.25;;;-3.13;89.98
51083;BME280;37131;42.694;23.350;2022-12-20T05:36:56;97286.25;;;-3.17;88.90
51083;BME280;37131;42.694;23.350;2022-12-20T05:39:22;97291.06;;;-3.12;88.57
51083;BME280;37131;42.694;23.350;2022-12-20T05:41:47;97294.06;;;-3.20;87.79
51083;BME280;37131;42.694;23.350;2022-12-20T05:44:12;97288.69;;;-3.15;89.29
51083;BME280;37131;42.694;23.350;2022-12-20T05:46:37;97303.38;;;-3.19;88.64
51083;BME280;37131;42.694;23.350;2022-12-20T05:49:03;97302.94;;;-3.11;87.63
51083;BME280;37131;42.694;23.350;2022-12-20T05:51:28;97298.38;;;-3.06;89.46
51083;BME280;37131;42.694;23.350;2022-12-20T05:53:53;97304.75;;;-3.13;88.02
51083;BME280;37131;42.694;23.350;2022-12-20T05:56:19;97303.19;;;-3.15;87.71
51083;BME280;37131;42.694;23.350;2022-12-20T05:58:44;97302.44;;;-3.18;88.60
51083;BME280;37131;42.694;23.350;2022-12-20T06:01:09;97299.31;;;-3.07;87.96
51083;BME280;37131;42.694;23.350;2022-12-20T06:03:35;97307.22;;;-2.97;87.78
51083;BME280;37131;42.694;23.350;2022-12-20T06:06:00;97303.38;;;-3.04;87.44
51083;BME280;37131;42.694;23.350;2022-12-20T06:08:26;97306.03;;;-3.20;87.61
51083;BME280;37131;42.694;23.350;2022-12-20T06:10:51;97305.66;;;-3.14;87.07
51083;BME280;37131;42.694;23.350;2022-12-20T06:13:17;97312.47;;;-3.14;88.13
51083;BME280;37131;42.694;23.350;2022-12-20T06:15:42;97308.03;;;-3.11;88.39
51083;BME280;37131;42.694;23.350;2022-12-20T06:18:07;97310.00;;;-3.16;88.66
51083;BME280;37131;42.694;23.350;2022-12-20T06:20:33;97303.25;;;-3.31;88.89
51083;BME280;37131;42.694;23.350;2022-12-20T06:22:58;97312.19;;;-3.24;89.58
51083;BME280;37131;42.694;23.350;2022-12-20T06:25:24;97310.53;;;-3.25;88.99
51083;BME280;37131;42.694;23.350;2022-12-20T06:27:49;97308.91;;;-3.26;88.61
51083;BME280;37131;42.694;23.350;2022-12-20T06:30:15;97312.19;;;-3.24;88.43
51083;BME280;37131;42.694;23.350;2022-12-20T06:32:40;97304.19;;;-3.18;89.15
51083;BME280;37131;42.694;23.350;2022-12-20T06:35:06;97302.44;;;-3.18;89.32
51083;BME280;37131;42.694;23.350;2022-12-20T06:37:31;97303.88;;;-2.97;87.46
51083;BME280;37131;42.694;23.350;2022-12-20T06:39:57;97305.34;;;-3.24;88.58
51083;BME280;37131;42.694;23.350;2022-12-20T06:42:23;97304.91;;;-3.30;88.25
51083;BME280;37131;42.694;23.350;2022-12-20T06:44:48;97306.56;;;-3.15;88.54
51083;BME280;37131;42.694;23.350;2022-12-20T06:47:13;97299.47;;;-3.10;87.85
51083;BME280;37131;42.694;23.350;2022-12-20T06:49:39;97294.38;;;-3.10;87.75
51083;BME280;37131;42.694;23.350;2022-12-20T06:52:04;97289.78;;;-3.19;87.49
51083;BME280;37131;42.694;23.350;2022-12-20T06:54:29;97289.72;;;-3.03;87.58
51083;BME280;37131;42.694;23.350;2022-12-20T06:56:55;97283.09;;;-2.91;86.70
51083;BME280;37131;42.694;23.350;2022-12-20T06:59:20;97291.28;;;-3.01;86.61
51083;BME280;37131;42.694;23.350;2022-12-20T07:01:45;97290.56;;;-2.88;85.29
51083;BME280;37131;42.694;23.350;2022-12-20T07:04:10;97287.56;;;-2.80;85.99
51083;BME280;37131;42.694;23.350;2022-12-20T07:06:36;97279.97;;;-2.82;86.50
51083;BME280;37131;42.694;23.350;2022-12-20T07:09:01;97279.28;;;-2.70;85.21
51083;BME280;37131;42.694;23.350;2022-12-20T07:11:26;97273.31;;;-2.70;85.86
51083;BME280;37131;42.694;23.350;2022-12-20T07:13:55;97274.97;;;-2.69;83.56
51083;BME280;37131;42.694;23.350;2022-12-20T07:16:20;97279.34;;;-2.86;85.48
51083;BME280;37131;42.694;23.350;2022-12-20T07:18:49;97279.63;;;-2.90;84.53
51083;BME280;37131;42.694;23.350;2022-12-20T07:21:15;97272.09;;;-2.77;85.48
51083;BME280;37131;42.694;23.350;2022-12-20T07:23:41;97277.00;;;-2.74;85.39
51083;BME280;37131;42.694;23.350;2022-12-20T07:26:06;97279.09;;;-2.67;85.28
51083;BME280;37131;42.694;23.350;2022-12-20T07:28:33;97281.09;;;-2.57;84.04
51083;BME280;37131;42.694;23.350;2022-12-20T07:31:01;97272.16;;;-2.65;84.53
51083;BME280;37131;42.694;23.350;2022-12-20T07:33:27;97272.88;;;-2.48;83.86
51083;BME280;37131;42.694;23.350;2022-12-20T07:35:58;97270.06;;;-2.43;83.23
51083;BME280;37131;42.694;23.350;2022-12-20T07:38:24;97276.78;;;-2.42;83.23
51083;BME280;37131;42.694;23.350;2022-12-20T07:40:49;97268.31;;;-2.28;83.56
51083;BME280;37131;42.694;23.350;2022-12-20T07:43:14;97276.66;;;-2.12;83.88
51083;BME280;37131;42.694;23.350;2022-12-20T07:45:40;97277.41;;;-2.24;82.50
51083;BME280;37131;42.694;23.350;2022-12-20T07:48:05;97269.81;;;-2.12;82.29
51083;BME280;37131;42.694;23.350;2022-12-20T07:50:31;97264.94;;;-2.02;81.30
51083;BME280;37131;42.694;23.350;2022-12-20T07:52:57;97268.19;;;-2.13;80.35
51083;BME280;37131;42.694;23.350;2022-12-20T07:55:23;97264.13;;;-2.02;80.05
51083;BME280;37131;42.694;23.350;2022-12-20T07:57:52;97257.13;;;-2.13;79.32
51083;BME280;37131;42.694;23.350;2022-12-20T08:00:19;97254.81;;;-2.03;80.08
51083;BME280;37131;42.694;23.350;2022-12-20T08:02:46;97259.66;;;-1.99;81.04
51083;BME280;37131;42.694;23.350;2022-12-20T08:05:13;97258.53;;;-1.95;78.71
51083;BME280;37131;42.694;23.350;2022-12-20T08:07:39;97257.84;;;-1.84;78.78
51083;BME280;37131;42.694;23.350;2022-12-20T08:10:06;97255.31;;;-1.84;78.91
51083;BME280;37131;42.694;23.350;2022-12-20T08:12:32;97254.59;;;-1.86;77.18
51083;BME280;37131;42.694;23.350;2022-12-20T08:14:58;97249.94;;;-1.66;76.79
51083;BME280;37131;42.694;23.350;2022-12-20T08:17:23;97261.19;;;-1.69;76.84
51083;BME280;37131;42.694;23.350;2022-12-20T08:19:49;97246.59;;;-1.54;76.87
51083;BME280;37131;42.694;23.350;2022-12-20T08:22:17;97245.47;;;-1.50;76.24
51083;BME280;37131;42.694;23.350;2022-12-20T08:24:43;97245.78;;;-1.54;76.75
51083;BME280;37131;42.694;23.350;2022-12-20T08:27:08;97248.94;;;-1.51;75.78
51083;BME280;37131;42.694;23.350;2022-12-20T08:29:34;97245.94;;;-1.70;75.49
51083;BME280;37131;42.694;23.350;2022-12-20T08:31:59;97235.91;;;-1.73;77.62
51083;BME280;37131;42.694;23.350;2022-12-20T08:34:25;97240.66;;;-1.54;77.22
51083;BME280;37131;42.694;23.350;2022-12-20T08:36:50;97234.53;;;-1.52;76.49
51083;BME280;37131;42.694;23.350;2022-12-20T08:39:15;97233.81;;;-1.41;75.61
51083;BME280;37131;42.694;23.350;2022-12-20T08:41:40;97237.19;;;-1.53;74.07
51083;BME280;37131;42.694;23.350;2022-12-20T08:44:06;97228.47;;;-1.51;75.19
51083;BME280;37131;42.694;23.350;2022-12-20T08:46:31;97230.25;;;-1.38;73.75
51083;BME280;37131;42.694;23.350;2022-12-20T08:48:56;97225.81;;;-1.49;73.79
51083;BME280;37131;42.694;23.350;2022-12-20T08:51:22;97234.97;;;-1.32;72.85
51083;BME280;37131;42.694;23.350;2022-12-20T08:53:47;97230.56;;;-1.17;73.30
51083;BME280;37131;42.694;23.350;2022-12-20T08:56:14;97227.91;;;-1.42;72.63
51083;BME280;37131;42.694;23.350;2022-12-20T08:58:39;97222.09;;;-1.18;72.98
51083;BME280;37131;42.694;23.350;2022-12-20T09:01:06;97226.38;;;-1.06;72.96
51083;BME280;37131;42.694;23.350;2022-12-20T09:03:32;97223.28;;;-0.98;73.83
51083;BME280;37131;42.694;23.350;2022-12-20T09:05:58;97217.69;;;-1.03;70.53
51083;BME280;37131;42.694;23.350;2022-12-20T09:08:24;97213.56;;;-1.06;70.87
51083;BME280;37131;42.694;23.350;2022-12-20T09:10:50;97215.13;;;-1.03;71.22
51083;BME280;37131;42.694;23.350;2022-12-20T09:13:15;97210.00;;;-1.03;70.35
51083;BME280;37131;42.694;23.350;2022-12-20T09:15:41;97211.44;;;-1.12;71.72
51083;BME280;37131;42.694;23.350;2022-12-20T09:18:07;97201.28;;;-1.13;69.98
51083;BME280;37131;42.694;23.350;2022-12-20T09:20:32;97203.53;;;-0.96;70.84
51083;BME280;37131;42.694;23.350;2022-12-20T09:22:58;97196.47;;;-0.92;69.77
51083;BME280;37131;42.694;23.350;2022-12-20T09:25:24;97186.53;;;-0.97;71.28
51083;BME280;37131;42.694;23.350;2022-12-20T09:27:49;97189.25;;;-0.74;68.54
51083;BME280;37131;42.694;23.350;2022-12-20T09:30:15;97181.38;;;-0.71;68.47
51083;BME280;37131;42.694;23.350;2022-12-20T09:32:40;97171.19;;;-0.60;67.30
51083;BME280;37131;42.694;23.350;2022-12-20T09:35:06;97182.16;;;-0.58;68.35
51083;BME280;37131;42.694;23.350;2022-12-20T09:37:31;97168.31;;;-0.55;68.09
51083;BME280;37131;42.694;23.350;2022-12-20T09:39:57;97173.09;;;-0.38;68.62
51083;BME280;37131;42.694;23.350;2022-12-20T09:42:23;97171.28;;;-0.48;66.10
51083;BME280;37131;42.694;23.350;2022-12-20T09:44:50;97164.72;;;-0.52;67.32
51083;BME280;37131;42.694;23.350;2022-12-20T09:47:16;97161.84;;;-0.24;66.26
51083;BME280;37131;42.694;23.350;2022-12-20T09:49:44;97151.50;;;-0.22;65.99
51083;BME280;37131;42.694;23.350;2022-12-20T09:57:26;97136.59;;;0.19;64.43
51083;BME280;37131;42.694;23.350;2022-12-20T09:59:56;97133.78;;;0.10;64.57
51083;BME280;37131;42.694;23.350;2022-12-20T10:02:23;97131.94;;;0.12;63.96
51083;BME280;37131;42.694;23.350;2022-12-20T10:04:49;97122.03;;;0.19;61.80
51083;BME280;37131;42.694;23.350;2022-12-20T10:07:21;97114.44;;;0.06;62.52
51083;BME280;37131;42.694;23.350;2022-12-20T10:10:02;97117.50;;;0.23;63.24
51083;BME280;37131;42.694;23.350;2022-12-20T10:15:11;97106.44;;;0.33;61.84
51083;BME280;37131;42.694;23.350;2022-12-20T10:23:27;97076.59;;;0.66;60.98
51083;BME280;37131;42.694;23.350;2022-12-20T10:25:55;97065.88;;;0.73;58.40
51083;BME280;37131;42.694;23.350;2022-12-20T10:28:27;97061.91;;;0.68;60.78
51083;BME280;37131;42.694;23.350;2022-12-20T10:30:56;97053.25;;;0.92;58.96
51083;BME280;37131;42.694;23.350;2022-12-20T10:33:22;97047.44;;;0.79;58.36
51083;BME280;37131;42.694;23.350;2022-12-20T10:35:48;97036.97;;;1.14;58.81
51083;BME280;37131;42.694;23.350;2022-12-20T10:38:15;97038.28;;;1.09;58.72
51083;BME280;37131;42.694;23.350;2022-12-20T10:43:14;97018.50;;;1.20;59.79
51083;BME280;37131;42.694;23.350;2022-12-20T10:45:41;97019.00;;;1.14;58.26
51083;BME280;37131;42.694;23.350;2022-12-20T10:51:11;97005.28;;;1.57;57.82
51083;BME280;37131;42.694;23.350;2022-12-20T10:53:48;96999.38;;;1.46;57.28
51083;BME280;37131;42.694;23.350;2022-12-20T10:56:21;96999.88;;;1.39;58.05
51083;BME280;37131;42.694;23.350;2022-12-20T10:59:01;96996.38;;;1.62;56.09
51083;BME280;37131;42.694;23.350;2022-12-20T11:01:30;96997.38;;;1.49;55.18
51083;BME280;37131;42.694;23.350;2022-12-20T11:04:04;96997.88;;;1.64;55.90
51083;BME280;37131;42.694;23.350;2022-12-20T11:14:31;96983.72;;;1.91;56.44
51083;BME280;37131;42.694;23.350;2022-12-20T11:16:57;96980.06;;;1.51;56.10
51083;BME280;37131;42.694;23.350;2022-12-20T11:27:15;96961.81;;;1.75;53.72
51083;BME280;37131;42.694;23.350;2022-12-20T11:32:24;96961.06;;;1.85;54.35
51083;BME280;37131;42.694;23.350;2022-12-20T11:52:59;96925.84;;;2.57;49.81
51083;BME280;37131;42.694;23.350;2022-12-20T11:55:28;96927.91;;;2.73;49.32
51083;BME280;37131;42.694;23.350;2022-12-20T12:00:20;96917.50;;;2.84;50.23
51083;BME280;37131;42.694;23.350;2022-12-20T12:03:31;96923.47;;;2.75;48.23
51083;BME280;37131;42.694;23.350;2022-12-20T12:08:02;96908.97;;;3.03;47.62
51083;BME280;37131;42.694;23.350;2022-12-20T12:10:36;96908.13;;;2.83;49.42
51083;BME280;37131;42.694;23.350;2022-12-20T12:13:14;96892.28;;;2.88;48.91
51083;BME280;37131;42.694;23.350;2022-12-20T12:25:44;96897.44;;;2.78;49.37
51083;BME280;37131;42.694;23.350;2022-12-20T12:28:11;96894.38;;;2.43;50.38
51083;BME280;37131;42.694;23.350;2022-12-20T12:30:38;96896.72;;;2.76;50.04
51083;BME280;37131;42.694;23.350;2022-12-20T12:33:07;96900.78;;;2.69;49.56
51083;BME280;37131;42.694;23.350;2022-12-20T12:40:43;96890.53;;;3.08;48.85
51083;BME280;37131;42.694;23.350;2022-12-20T12:45:59;96869.16;;;4.48;45.74
51083;BME280;37131;42.694;23.350;2022-12-20T12:50:59;96873.25;;;5.49;42.75
51083;BME280;37131;42.694;23.350;2022-12-20T12:59:18;96862.81;;;5.14;42.21
51083;BME280;37131;42.694;23.350;2022-12-20T13:06:42;96858.34;;;3.31;44.40
51083;BME280;37131;42.694;23.350;2022-12-20T13:09:53;96862.41;;;3.34;46.28
51083;BME280;37131;42.694;23.350;2022-12-20T13:11:54;96857.81;;;3.28;46.72
51083;BME280;37131;42.694;23.350;2022-12-20T13:16:49;96846.81;;;3.26;46.11
51083;BME280;37131;42.694;23.350;2022-12-20T13:21:52;96852.13;;;3.05;47.21
51083;BME280;37131;42.694;23.350;2022-12-20T13:29:53;96855.16;;;2.80;46.54
51083;BME280;37131;42.694;23.350;2022-12-20T13:35:12;96848.63;;;2.76;46.68
51083;BME280;37131;42.694;23.350;2022-12-20T13:43:10;96842.66;;;2.76;46.93
51083;BME280;37131;42.694;23.350;2022-12-20T13:45:39;96850.47;;;2.45;46.54
51083;BME280;37131;42.694;23.350;2022-12-20T13:48:07;96855.22;;;2.40;47.38
51083;BME280;37131;42.694;23.350;2022-12-20T13:50:38;96846.41;;;2.33;49.41
51083;BME280;37131;42.694;23.350;2022-12-20T13:53:05;96846.53;;;2.31;48.22
51083;BME280;37131;42.694;23.350;2022-12-20T13:57:57;96842.47;;;2.28;48.34
51083;BME280;37131;42.694;23.350;2022-12-20T14:00:27;96838.69;;;2.33;48.55
51083;BME280;37131;42.694;23.350;2022-12-20T14:02:53;96839.63;;;2.32;47.97
51083;BME280;37131;42.694;23.350;2022-12-20T14:05:25;96841.56;;;2.39;47.65
51083;BME280;37131;42.694;23.350;2022-12-20T14:08:33;96836.53;;;2.38;47.53
51083;BME280;37131;42.694;23.350;2022-12-20T14:10:39;96827.44;;;2.34;49.75
51083;BME280;37131;42.694;23.350;2022-12-20T14:13:24;96827.16;;;2.27;48.48
51083;BME280;37131;42.694;23.350;2022-12-20T14:15:50;96825.13;;;2.21;48.96
51083;BME280;37131;42.694;23.350;2022-12-20T14:18:20;96818.47;;;2.18;47.52
51083;BME280;37131;42.694;23.350;2022-12-20T14:20:52;96823.22;;;2.23;48.20
51083;BME280;37131;42.694;23.350;2022-12-20T14:23:20;96821.88;;;2.19;48.71
51083;BME280;37131;42.694;23.350;2022-12-20T14:25:47;96819.28;;;2.19;48.23
51083;BME280;37131;42.694;23.350;2022-12-20T14:30:43;96820.34;;;2.06;49.28
51083;BME280;37131;42.694;23.350;2022-12-20T14:33:18;96825.22;;;2.09;48.71
51083;BME280;37131;42.694;23.350;2022-12-20T14:35:46;96817.09;;;2.04;48.72
51083;BME280;37131;42.694;23.350;2022-12-20T14:38:17;96812.56;;;1.87;50.42
51083;BME280;37131;42.694;23.350;2022-12-20T14:40:43;96811.91;;;1.85;49.62
51083;BME280;37131;42.694;23.350;2022-12-20T14:43:20;96807.88;;;1.92;49.31
51083;BME280;37131;42.694;23.350;2022-12-20T14:45:47;96807.97;;;1.90;49.61
51083;BME280;37131;42.694;23.350;2022-12-20T14:48:14;96813.94;;;1.91;50.70
51083;BME280;37131;42.694;23.350;2022-12-20T14:50:40;96822.94;;;1.75;50.66
51083;BME280;37131;42.694;23.350;2022-12-20T14:53:15;96817.19;;;1.52;51.73
51083;BME280;37131;42.694;23.350;2022-12-20T14:55:44;96815.59;;;1.61;50.64
51083;BME280;37131;42.694;23.350;2022-12-20T14:58:23;96814.78;;;1.61;51.06
51083;BME280;37131;42.694;23.350;2022-12-20T15:00:56;96813.03;;;1.61;51.26
51083;BME280;37131;42.694;23.350;2022-12-20T15:03:22;96807.63;;;1.64;50.14
51083;BME280;37131;42.694;23.350;2022-12-20T15:05:48;96810.94;;;1.55;51.67
51083;BME280;37131;42.694;23.350;2022-12-20T15:11:31;96810.84;;;1.26;52.88